sensor_id;sensor_type;location;lat;lon;timestamp;pressure;altitude;pressure_sealevel;temperature;humidity
35443;BME280;21561;55.654;37.592;2023-04-06T00:01:33;100003.88;;;5.28;73.34
35443;BME280;21561;55.654;37.592;2023-04-06T00:04:00;100004.69;;;5.25;73.61
35443;BME280;21561;55.654;37.592;2023-04-06T00:06:27;100007.22;;;5.24;73.70
35443;BME280;21561;55.654;37.592;2023-04-06T00:08:54;99998.59;;;5.22;73.90
35443;BME280;21561;55.654;37.592;2023-04-06T00:11:20;100010.56;;;5.20;73.76
35443;BME280;21561;55.654;37.592;2023-04-06T00:13:47;100005.34;;;5.16;73.76
35443;BME280;21561;55.654;37.592;2023-04-06T00:16:14;100010.50;;;5.16;73.69
35443;BME280;21561;55.654;37.592;2023-04-06T00:18:41;100008.72;;;5.12;73.97
35443;BME280;21561;55.654;37.592;2023-04-06T00:21:08;100003.50;;;5.09;74.15
35443;BME280;21561;55.654;37.592;2023-04-06T00:23:34;100008.63;;;5.09;74.07
35443;BME280;21561;55.654;37.592;2023-04-06T00:26:01;100012.06;;;5.08;74.15
35443;BME280;21561;55.654;37.592;2023-04-06T00:28:27;100008.59;;;5.06;74.11
35443;BME280;21561;55.654;37.592;2023-04-06T00:30:56;100006.84;;;5.05;74.54
35443;BME280;21561;55.654;37.592;2023-04-06T00:33:23;100015.38;;;5.04;74.47
35443;BME280;21561;55.654;37.592;2023-04-06T00:35:50;100008.53;;;5.03;74.14
35443;BME280;21561;55.654;37.592;2023-04-06T00:38:16;100006.78;;;5.02;74.33
35443;BME280;21561;55.654;37.592;2023-04-06T00:40:43;100010.16;;;5.00;74.39
35443;BME280;21561;55.654;37.592;2023-04-06T00:43:13;100008.38;;;4.97;74.26
35443;BME280;21561;55.654;37.592;2023-04-06T00:45:40;100008.34;;;4.94;74.60
35443;BME280;21561;55.654;37.592;2023-04-06T00:48:07;100009.94;;;4.89;74.97
35443;BME280;21561;55.654;37.592;2023-04-06T00:50:35;100009.94;;;4.89;74.69
35443;BME280;21561;55.654;37.592;2023-04-06T00:53:01;100005.56;;;4.86;75.07
35443;BME280;21561;55.654;37.592;2023-04-06T00:55:28;99997.84;;;4.85;75.13
35443;BME280;21561;55.654;37.592;2023-04-06T00:57:58;100003.91;;;4.87;75.56
35443;BME280;21561;55.654;37.592;2023-04-06T01:00:25;100001.16;;;4.81;76.19
35443;BME280;21561;55.654;37.592;2023-04-06T01:02:52;100003.75;;;4.81;75.23
35443;BME280;21561;55.654;37.592;2023-04-06T01:05:21;99997.69;;;4.78;75.59
35443;BME280;21561;55.654;37.592;2023-04-06T01:07:48;99997.63;;;4.75;75.65
35443;BME280;21561;55.654;37.592;2023-04-06T01:10:25;100001.06;;;4.74;75.68
35443;BME280;21561;55.654;37.592;2023-04-06T01:12:51;99999.31;;;4.73;75.84
35443;BME280;21561;55.654;37.592;2023-04-06T01:15:18;100000.16;;;4.72;75.72
35443;BME280;21561;55.654;37.592;2023-04-06T01:17:46;99991.53;;;4.70;76.15
35443;BME280;21561;55.654;37.592;2023-04-06T01:20:12;99997.59;;;4.72;75.70
35443;BME280;21561;55.654;37.592;2023-04-06T01:22:39;99989.78;;;4.69;75.78
35443;BME280;21561;55.654;37.592;2023-04-06T01:25:06;99990.63;;;4.68;75.73
35443;BME280;21561;55.654;37.592;2023-04-06T01:27:33;100000.91;;;4.68;75.58
35443;BME280;21561;55.654;37.592;2023-04-06T01:29:59;99993.13;;;4.65;75.93
35443;BME280;21561;55.654;37.592;2023-04-06T01:32:26;100000.78;;;4.62;76.04
35443;BME280;21561;55.654;37.592;2023-04-06T01:34:53;99993.03;;;4.61;76.21
35443;BME280;21561;55.654;37.592;2023-04-06T01:37:21;99989.59;;;4.60;75.98
35443;BME280;21561;55.654;37.592;2023-04-06T01:39:47;99991.25;;;4.58;76.04
35443;BME280;21561;55.654;37.592;2023-04-06T01:42:14;99994.66;;;4.57;76.15
35443;BME280;21561;55.654;37.592;2023-04-06T01:44:40;99992.03;;;4.55;76.12
35443;BME280;21561;55.654;37.592;2023-04-06T01:47:07;99988.63;;;4.55;76.32
35443;BME280;21561;55.654;37.592;2023-04-06T01:49:34;99985.16;;;4.53;76.26
35443;BME280;21561;55.654;37.592;2023-04-06T01:52:00;99984.25;;;4.51;76.43
35443;BME280;21561;55.654;37.592;2023-04-06T01:54:27;99990.22;;;4.50;76.72
35443;BME280;21561;55.654;37.592;2023-04-06T01:56:53;99986.78;;;4.49;76.54
35443;BME280;21561;55.654;37.592;2023-04-06T01:59:20;99981.59;;;4.48;76.51
35443;BME280;21561;55.654;37.592;2023-04-06T02:01:47;99988.41;;;4.46;76.65
35443;BME280;21561;55.654;37.592;2023-04-06T02:04:13;99991.81;;;4.45;76.53
35443;BME280;21561;55.654;37.592;2023-04-06T02:06:40;99995.22;;;4.44;76.45
35443;BME280;21561;55.654;37.592;2023-04-06T02:09:07;100003.75;;;4.43;76.51
35443;BME280;21561;55.654;37.592;2023-04-06T02:11:34;100003.66;;;4.39;77.75
35443;BME280;21561;55.654;37.592;2023-04-06T02:14:01;100002.78;;;4.37;77.28
35443;BME280;21561;55.654;37.592;2023-04-06T02:16:48;99996.72;;;4.35;77.42
35443;BME280;21561;55.654;37.592;2023-04-06T02:19:15;100001.00;;;4.35;77.07
35443;BME280;21561;55.654;37.592;2023-04-06T02:21:41;99999.22;;;4.32;77.21
35443;BME280;21561;55.654;37.592;2023-04-06T02:24:08;100004.34;;;4.31;77.45
35443;BME280;21561;55.654;37.592;2023-04-06T02:26:35;100003.44;;;4.30;77.32
35443;BME280;21561;55.654;37.592;2023-04-06T02:29:01;100005.22;;;4.31;77.55
35443;BME280;21561;55.654;37.592;2023-04-06T02:31:28;100011.19;;;4.32;77.29
35443;BME280;21561;55.654;37.592;2023-04-06T02:33:55;100017.19;;;4.32;77.47
35443;BME280;21561;55.654;37.592;2023-04-06T02:36:21;100009.47;;;4.31;77.24
35443;BME280;21561;55.654;37.592;2023-04-06T02:38:48;100007.69;;;4.28;77.55
35443;BME280;21561;55.654;37.592;2023-04-06T02:41:14;100015.41;;;4.28;77.51
35443;BME280;21561;55.654;37.592;2023-04-06T02:43:41;100023.16;;;4.30;77.70
35443;BME280;21561;55.654;37.592;2023-04-06T02:46:08;100019.72;;;4.29;77.35
35443;BME280;21561;55.654;37.592;2023-04-06T02:48:34;100013.69;;;4.27;77.59
35443;BME280;21561;55.654;37.592;2023-04-06T02:51:03;100020.50;;;4.27;77.81
35443;BME280;21561;55.654;37.592;2023-04-06T02:53:30;100029.91;;;4.26;78.02
35443;BME280;21561;55.654;37.592;2023-04-06T02:55:56;100020.47;;;4.25;77.94
35443;BME280;21561;55.654;37.592;2023-04-06T02:58:23;100028.19;;;4.27;77.58
35443;BME280;21561;55.654;37.592;2023-04-06T03:00:50;100041.00;;;4.25;77.53
35443;BME280;21561;55.654;37.592;2023-04-06T03:03:16;100035.88;;;4.25;77.63
35443;BME280;21561;55.654;37.592;2023-04-06T03:05:43;100034.16;;;4.24;77.53
35443;BME280;21561;55.654;37.592;2023-04-06T03:08:09;100041.00;;;4.25;77.68
35443;BME280;21561;55.654;37.592;2023-04-06T03:10:36;100039.28;;;4.24;77.60
35443;BME280;21561;55.654;37.592;2023-04-06T03:13:03;100042.66;;;4.23;77.75
35443;BME280;21561;55.654;37.592;2023-04-06T03:15:29;100039.19;;;4.21;78.04
35443;BME280;21561;55.654;37.592;2023-04-06T03:17:57;100038.31;;;4.19;77.94
35443;BME280;21561;55.654;37.592;2023-04-06T03:20:25;100033.97;;;4.18;78.14
35443;BME280;21561;55.654;37.592;2023-04-06T03:22:52;100038.25;;;4.17;77.88
35443;BME280;21561;55.654;37.592;2023-04-06T03:25:18;100044.25;;;4.18;78.06
35443;BME280;21561;55.654;37.592;2023-04-06T03:27:45;100051.97;;;4.18;78.18
35443;BME280;21561;55.654;37.592;2023-04-06T03:30:12;100054.53;;;4.18;77.99
35443;BME280;21561;55.654;37.592;2023-04-06T03:32:39;100048.56;;;4.19;78.37
35443;BME280;21561;55.654;37.592;2023-04-06T03:35:05;100059.66;;;4.18;78.45
35443;BME280;21561;55.654;37.592;2023-04-06T03:37:32;100062.28;;;4.19;78.49
35443;BME280;21561;55.654;37.592;2023-04-06T03:39:59;100061.50;;;4.22;78.30
35443;BME280;21561;55.654;37.592;2023-04-06T03:42:25;100058.94;;;4.22;78.38
35443;BME280;21561;55.654;37.592;2023-04-06T03:44:52;100063.22;;;4.23;78.56
35443;BME280;21561;55.654;37.592;2023-04-06T03:47:20;100064.97;;;4.24;78.47
35443;BME280;21561;55.654;37.592;2023-04-06T03:49:46;100064.97;;;4.24;78.64
35443;BME280;21561;55.654;37.592;2023-04-06T03:52:13;100059.84;;;4.24;78.74
35443;BME280;21561;55.654;37.592;2023-04-06T03:54:39;100063.31;;;4.26;78.79
35443;BME280;21561;55.654;37.592;2023-04-06T03:57:06;100067.59;;;4.26;78.75
35443;BME280;21561;55.654;37.592;2023-04-06T03:59:33;100066.75;;;4.27;78.78
35443;BME280;21561;55.654;37.592;2023-04-06T04:01:59;100070.19;;;4.27;78.69
35443;BME280;21561;55.654;37.592;2023-04-06T04:04:26;100065.91;;;4.28;78.90
35443;BME280;21561;55.654;37.592;2023-04-06T04:06:53;100071.09;;;4.29;78.94
35443;BME280;21561;55.654;37.592;2023-04-06T04:09:19;100072.91;;;4.33;78.40
35443;BME280;21561;55.654;37.592;2023-04-06T04:11:46;100072.09;;;4.34;78.47
35443;BME280;21561;55.654;37.592;2023-04-06T04:14:13;100078.09;;;4.35;78.55
35443;BME280;21561;55.654;37.592;2023-04-06T04:16:39;100080.75;;;4.38;78.59
35443;BME280;21561;55.654;37.592;2023-04-06T04:19:07;100079.94;;;4.40;78.72
35443;BME280;21561;55.654;37.592;2023-04-06T04:21:41;100084.25;;;4.43;78.63
35443;BME280;21561;55.654;37.592;2023-04-06T04:24:08;100084.34;;;4.46;78.46
35443;BME280;21561;55.654;37.592;2023-04-06T04:26:34;100081.88;;;4.49;78.87
35443;BME280;21561;55.654;37.592;2023-04-06T04:29:01;100087.94;;;4.53;78.62
35443;BME280;21561;55.654;37.592;2023-04-06T04:31:28;100083.66;;;4.53;79.65
35443;BME280;21561;55.654;37.592;2023-04-06T04:33:55;100090.63;;;4.57;79.07
35443;BME280;21561;55.654;37.592;2023-04-06T04:36:21;100090.69;;;4.61;79.26
35443;BME280;21561;55.654;37.592;2023-04-06T04:38:49;100079.63;;;4.63;78.68
35443;BME280;21561;55.654;37.592;2023-04-06T04:41:16;100083.97;;;4.66;78.88
35443;BME280;21561;55.654;37.592;2023-04-06T04:43:42;100089.16;;;4.67;78.82
35443;BME280;21561;55.654;37.592;2023-04-06T04:46:09;100078.97;;;4.72;78.47
35443;BME280;21561;55.654;37.592;2023-04-06T04:48:36;100079.88;;;4.74;78.47
35443;BME280;21561;55.654;37.592;2023-04-06T04:51:03;100079.88;;;4.74;78.48
35443;BME280;21561;55.654;37.592;2023-04-06T04:53:30;100073.91;;;4.75;78.65
35443;BME280;21561;55.654;37.592;2023-04-06T04:55:57;100081.72;;;4.80;78.54
35443;BME280;21561;55.654;37.592;2023-04-06T04:58:24;100083.53;;;4.84;78.66
35443;BME280;21561;55.654;37.592;2023-04-06T05:00:50;100088.78;;;4.90;78.31
35443;BME280;21561;55.654;37.592;2023-04-06T05:03:23;100082.06;;;4.95;78.29
35443;BME280;21561;55.654;37.592;2023-04-06T05:05:51;100082.13;;;4.98;78.45
35443;BME280;21561;55.654;37.592;2023-04-06T05:08:18;100086.47;;;5.01;78.31
35443;BME280;21561;55.654;37.592;2023-04-06T05:10:44;100088.22;;;5.02;78.33
35443;BME280;21561;55.654;37.592;2023-04-06T05:13:12;100088.28;;;5.05;78.26
35443;BME280;21561;55.654;37.592;2023-04-06T05:15:39;100086.63;;;5.07;78.13
35443;BME280;21561;55.654;37.592;2023-04-06T05:18:07;100089.22;;;5.08;78.25
35443;BME280;21561;55.654;37.592;2023-04-06T05:20:34;100093.56;;;5.11;78.07
35443;BME280;21561;55.654;37.592;2023-04-06T05:23:00;100093.69;;;5.15;78.13
35443;BME280;21561;55.654;37.592;2023-04-06T05:25:27;100091.16;;;5.19;78.28
35443;BME280;21561;55.654;37.592;2023-04-06T05:27:54;100096.44;;;5.25;77.97
35443;BME280;21561;55.654;37.592;2023-04-06T05:30:21;100093.09;;;5.29;78.04
35443;BME280;21561;55.654;37.592;2023-04-06T05:32:47;100090.63;;;5.33;77.97
35443;BME280;21561;55.654;37.592;2023-04-06T05:35:14;100091.56;;;5.37;77.93
35443;BME280;21561;55.654;37.592;2023-04-06T05:37:41;100098.50;;;5.41;78.05
35443;BME280;21561;55.654;37.592;2023-04-06T05:40:08;100095.16;;;5.45;77.85
35443;BME280;21561;55.654;37.592;2023-04-06T05:42:41;100093.53;;;5.50;77.64
35443;BME280;21561;55.654;37.592;2023-04-06T05:45:09;100086.78;;;5.55;77.75
35443;BME280;21561;55.654;37.592;2023-04-06T05:47:37;100092.94;;;5.62;77.67
35443;BME280;21561;55.654;37.592;2023-04-06T05:50:03;100091.38;;;5.69;77.54
35443;BME280;21561;55.654;37.592;2023-04-06T05:52:30;100092.25;;;5.71;77.53
35443;BME280;21561;55.654;37.592;2023-04-06T05:54:57;100087.28;;;5.80;77.35
35443;BME280;21561;55.654;37.592;2023-04-06T05:57:24;100092.53;;;5.86;77.42
35443;BME280;21561;55.654;37.592;2023-04-06T05:59:50;100098.59;;;5.90;77.32
35443;BME280;21561;55.654;37.592;2023-04-06T06:02:17;100099.63;;;5.97;77.25
35443;BME280;21561;55.654;37.592;2023-04-06T06:04:44;100100.59;;;6.02;77.20
35443;BME280;21561;55.654;37.592;2023-04-06T06:07:10;100105.78;;;6.03;77.10
35443;BME280;21561;55.654;37.592;2023-04-06T06:09:37;100103.28;;;6.08;77.06
35443;BME280;21561;55.654;37.592;2023-04-06T06:12:03;100105.91;;;6.11;77.21
35443;BME280;21561;55.654;37.592;2023-04-06T06:14:30;100096.56;;;6.16;77.08
35443;BME280;21561;55.654;37.592;2023-04-06T06:16:57;100091.50;;;6.22;77.07
35443;BME280;21561;55.654;37.592;2023-04-06T06:19:24;100089.06;;;6.28;76.98
35443;BME280;21561;55.654;37.592;2023-04-06T06:21:50;100093.47;;;6.36;76.86
35443;BME280;21561;55.654;37.592;2023-04-06T06:24:17;100086.69;;;6.41;76.96
35443;BME280;21561;55.654;37.592;2023-04-06T06:26:44;100087.72;;;6.52;76.76
35443;BME280;21561;55.654;37.592;2023-04-06T06:29:10;100082.72;;;6.61;76.50
35443;BME280;21561;55.654;37.592;2023-04-06T06:31:37;100081.13;;;6.69;76.41
35443;BME280;21561;55.654;37.592;2023-04-06T06:34:03;100087.25;;;6.78;76.21
35443;BME280;21561;55.654;37.592;2023-04-06T06:36:30;100077.84;;;6.81;75.17
35443;BME280;21561;55.654;37.592;2023-04-06T06:38:58;100078.69;;;6.79;75.21
35443;BME280;21561;55.654;37.592;2023-04-06T06:41:25;100086.47;;;6.83;75.03
35443;BME280;21561;55.654;37.592;2023-04-06T06:43:52;100078.84;;;6.90;74.26
35443;BME280;21561;55.654;37.592;2023-04-06T06:46:19;100083.16;;;6.91;73.98
35443;BME280;21561;55.654;37.592;2023-04-06T06:48:46;100072.81;;;6.89;74.27
35443;BME280;21561;55.654;37.592;2023-04-06T06:51:13;100075.53;;;7.00;73.56
35443;BME280;21561;55.654;37.592;2023-04-06T06:53:40;100074.72;;;7.02;73.32
35443;BME280;21561;55.654;37.592;2023-04-06T06:56:06;100076.47;;;7.03;73.47
35443;BME280;21561;55.654;37.592;2023-04-06T06:58:33;100079.16;;;7.11;73.26
35443;BME280;21561;55.654;37.592;2023-04-06T07:00:59;100077.53;;;7.18;73.27
35443;BME280;21561;55.654;37.592;2023-04-06T07:03:26;100080.19;;;7.24;73.28
35443;BME280;21561;55.654;37.592;2023-04-06T07:05:53;100082.00;;;7.31;72.87
35443;BME280;21561;55.654;37.592;2023-04-06T07:08:20;100074.41;;;7.43;72.51
35443;BME280;21561;55.654;37.592;2023-04-06T07:10:47;100085.59;;;7.44;72.62
35443;BME280;21561;55.654;37.592;2023-04-06T07:13:14;100072.88;;;7.58;71.83
35443;BME280;21561;55.654;37.592;2023-04-06T07:15:51;100078.88;;;7.58;71.91
35443;BME280;21561;55.654;37.592;2023-04-06T07:18:18;100078.97;;;7.66;71.64
35443;BME280;21561;55.654;37.592;2023-04-06T07:20:44;100079.09;;;7.75;70.46
35443;BME280;21561;55.654;37.592;2023-04-06T07:23:11;100079.13;;;7.80;71.03
35443;BME280;21561;55.654;37.592;2023-04-06T07:25:38;100078.38;;;7.89;71.01
35443;BME280;21561;55.654;37.592;2023-04-06T07:28:05;100074.16;;;7.98;71.13
35443;BME280;21561;55.654;37.592;2023-04-06T07:30:31;100074.31;;;8.14;70.15
35443;BME280;21561;55.654;37.592;2023-04-06T07:33:01;100070.97;;;8.24;70.67
35443;BME280;21561;55.654;37.592;2023-04-06T07:35:27;100075.38;;;8.36;70.76
35443;BME280;21561;55.654;37.592;2023-04-06T07:37:56;100069.50;;;8.49;70.82
35443;BME280;21561;55.654;37.592;2023-04-06T07:40:23;100076.47;;;8.61;70.80
35443;BME280;21561;55.654;37.592;2023-04-06T07:42:50;100071.38;;;8.72;70.55
35443;BME280;21561;55.654;37.592;2023-04-06T07:45:17;100077.53;;;8.83;70.76
35443;BME280;21561;55.654;37.592;2023-04-06T07:47:43;100072.44;;;8.95;70.71
35443;BME280;21561;55.654;37.592;2023-04-06T07:50:10;100078.53;;;9.08;70.53
35443;BME280;21561;55.654;37.592;2023-04-06T07:52:38;100076.88;;;9.21;70.54
35443;BME280;21561;55.654;37.592;2023-04-06T07:55:05;100081.25;;;9.31;70.49
35443;BME280;21561;55.654;37.592;2023-04-06T07:57:31;100086.47;;;9.44;70.46
35443;BME280;21561;55.654;37.592;2023-04-06T07:59:58;100075.28;;;9.52;70.39
35443;BME280;21561;55.654;37.592;2023-04-06T08:02:24;100070.16;;;9.65;69.44
35443;BME280;21561;55.654;37.592;2023-04-06T08:04:51;100055.47;;;9.65;63.62
35443;BME280;21561;55.654;37.592;2023-04-06T08:07:18;100072.78;;;9.69;67.92
35443;BME280;21561;55.654;37.592;2023-04-06T08:09:45;100052.03;;;9.72;63.52
35443;BME280;21561;55.654;37.592;2023-04-06T08:12:11;100062.44;;;9.82;64.66
35443;BME280;21561;55.654;37.592;2023-04-06T08:14:38;100070.22;;;9.94;67.39
35443;BME280;21561;55.654;37.592;2023-04-06T08:17:04;100066.78;;;10.01;65.81
35443;BME280;21561;55.654;37.592;2023-04-06T08:19:32;100077.19;;;10.13;65.93
35443;BME280;21561;55.654;37.592;2023-04-06T08:21:58;100059.03;;;10.23;62.95
35443;BME280;21561;55.654;37.592;2023-04-06T08:24:25;100079.78;;;10.23;65.71
35443;BME280;21561;55.654;37.592;2023-04-06T08:26:52;100065.97;;;10.27;66.71
35443;BME280;21561;55.654;37.592;2023-04-06T08:29:19;100076.38;;;10.36;66.69
35443;BME280;21561;55.654;37.592;2023-04-06T08:31:45;100072.03;;;10.46;66.39
35443;BME280;21561;55.654;37.592;2023-04-06T08:34:12;100076.38;;;10.55;66.47
35443;BME280;21561;55.654;37.592;2023-04-06T08:36:40;100068.59;;;10.65;66.30
35443;BME280;21561;55.654;37.592;2023-04-06T08:39:07;100063.38;;;10.75;66.04
35443;BME280;21561;55.654;37.592;2023-04-06T08:41:34;100055.56;;;10.85;65.81
35443;BME280;21561;55.654;37.592;2023-04-06T08:44:01;100058.16;;;10.98;65.88
35443;BME280;21561;55.654;37.592;2023-04-06T08:46:29;100051.22;;;11.04;65.36
35443;BME280;21561;55.654;37.592;2023-04-06T08:48:58;100052.09;;;11.02;64.71
35443;BME280;21561;55.654;37.592;2023-04-06T08:51:25;100048.59;;;11.12;64.38
35443;BME280;21561;55.654;37.592;2023-04-06T08:53:53;100046.88;;;11.11;63.32
35443;BME280;21561;55.654;37.592;2023-04-06T08:56:23;100007.94;;;11.03;59.50
35443;BME280;21561;55.654;37.592;2023-04-06T08:58:50;100053.78;;;11.12;62.85
35443;BME280;21561;55.654;37.592;2023-04-06T09:01:23;100033.81;;;11.25;60.79
35443;BME280;21561;55.654;37.592;2023-04-06T09:03:55;100015.59;;;11.37;59.25
35443;BME280;21561;55.654;37.592;2023-04-06T09:06:22;100053.66;;;11.49;61.52
35443;BME280;21561;55.654;37.592;2023-04-06T09:08:49;100044.97;;;11.59;60.90
35443;BME280;21561;55.654;37.592;2023-04-06T09:11:15;99986.81;;;11.73;57.91
35443;BME280;21561;55.654;37.592;2023-04-06T09:16:12;100053.44;;;11.98;60.89
35443;BME280;21561;55.654;37.592;2023-04-06T09:18:39;99922.53;;;12.01;52.29
35443;BME280;21561;55.654;37.592;2023-04-06T09:21:06;99885.16;;;12.10;52.88
35443;BME280;21561;55.654;37.592;2023-04-06T09:23:33;100065.44;;;12.19;59.30
35443;BME280;21561;55.654;37.592;2023-04-06T09:26:10;100038.47;;;12.28;59.02
35443;BME280;21561;55.654;37.592;2023-04-06T09:28:56;99865.81;;;12.35;50.36
35443;BME280;21561;55.654;37.592;2023-04-06T09:31:27;100000.09;;;12.53;55.93
35443;BME280;21561;55.654;37.592;2023-04-06T09:33:55;100032.06;;;12.69;58.69
35443;BME280;21561;55.654;37.592;2023-04-06T09:38:59;100023.50;;;12.58;58.10
35443;BME280;21561;55.654;37.592;2023-04-06T09:41:33;99994.88;;;12.58;55.36
35443;BME280;21561;55.654;37.592;2023-04-06T09:44:03;100031.16;;;12.73;57.08
35443;BME280;21561;55.654;37.592;2023-04-06T09:46:31;100031.88;;;12.88;57.66
35443;BME280;21561;55.654;37.592;2023-04-06T09:49:16;100042.16;;;13.00;57.94
35443;BME280;21561;55.654;37.592;2023-04-06T09:51:46;100020.34;;;13.10;57.44
35443;BME280;21561;55.654;37.592;2023-04-06T09:54:18;99991.56;;;13.20;55.94
35443;BME280;21561;55.654;37.592;2023-04-06T10:01:58;99977.38;;;13.45;54.64
35443;BME280;21561;55.654;37.592;2023-04-06T10:07:03;99994.50;;;13.62;54.20
35443;BME280;21561;55.654;37.592;2023-04-06T10:09:32;99987.53;;;13.64;54.01
35443;BME280;21561;55.654;37.592;2023-04-06T10:12:03;99987.41;;;13.73;54.47
35443;BME280;21561;55.654;37.592;2023-04-06T10:14:30;99941.22;;;13.80;51.13
35443;BME280;21561;55.654;37.592;2023-04-06T10:16:57;99923.75;;;13.85;52.32
35443;BME280;21561;55.654;37.592;2023-04-06T10:19:25;99951.50;;;13.89;52.58
35443;BME280;21561;55.654;37.592;2023-04-06T10:21:54;99945.25;;;14.01;52.34
35443;BME280;21561;55.654;37.592;2023-04-06T10:24:22;99927.41;;;14.27;51.27
35443;BME280;21561;55.654;37.592;2023-04-06T10:26:58;99897.28;;;15.00;50.72
35443;BME280;21561;55.654;37.592;2023-04-06T10:29:28;99844.53;;;16.28;48.79
35443;BME280;21561;55.654;37.592;2023-04-06T10:31:54;99776.31;;;17.47;46.95
35443;BME280;21561;55.654;37.592;2023-04-06T10:34:21;99711.28;;;18.53;45.26
35443;BME280;21561;55.654;37.592;2023-04-06T10:36:48;99704.00;;;19.46;45.16
35443;BME280;21561;55.654;37.592;2023-04-06T10:39:15;99633.41;;;20.33;43.08
35443;BME280;21561;55.654;37.592;2023-04-06T10:41:50;99547.72;;;21.13;41.39
35443;BME280;21561;55.654;37.592;2023-04-06T10:44:20;99514.75;;;21.71;40.03
35443;BME280;21561;55.654;37.592;2023-04-06T10:46:58;99536.50;;;22.23;40.51
35443;BME280;21561;55.654;37.592;2023-04-06T10:49:28;99501.97;;;22.72;40.03
35443;BME280;21561;55.654;37.592;2023-04-06T10:51:55;99411.09;;;23.16;38.01
35443;BME280;21561;55.654;37.592;2023-04-06T10:54:23;99368.72;;;23.58;37.14
35443;BME280;21561;55.654;37.592;2023-04-06T10:56:50;99333.69;;;23.94;35.91
35443;BME280;21561;55.654;37.592;2023-04-06T10:59:20;99261.81;;;24.25;34.62
35443;BME280;21561;55.654;37.592;2023-04-06T11:01:48;99173.09;;;24.54;32.88
35443;BME280;21561;55.654;37.592;2023-04-06T11:04:16;99202.78;;;24.60;34.07
35443;BME280;21561;55.654;37.592;2023-04-06T11:06:47;99073.44;;;24.87;29.67
35443;BME280;21561;55.654;37.592;2023-04-06T11:09:27;99135.66;;;25.19;33.08
35443;BME280;21561;55.654;37.592;2023-04-06T11:11:55;99043.25;;;25.46;30.30
35443;BME280;21561;55.654;37.592;2023-04-06T11:14:22;98971.88;;;25.64;29.72
35443;BME280;21561;55.654;37.592;2023-04-06T11:16:49;98893.38;;;25.71;28.68
35443;BME280;21561;55.654;37.592;2023-04-06T11:19:16;98892.16;;;25.76;28.60
35443;BME280;21561;55.654;37.592;2023-04-06T11:21:44;98989.50;;;25.88;30.17
35443;BME280;21561;55.654;37.592;2023-04-06T11:24:20;98907.16;;;26.09;27.86
35443;BME280;21561;55.654;37.592;2023-04-06T11:26:48;98837.97;;;25.99;28.23
35443;BME280;21561;55.654;37.592;2023-04-06T11:29:15;98898.41;;;25.97;28.68
35443;BME280;21561;55.654;37.592;2023-04-06T11:31:45;98879.16;;;26.26;27.78
35443;BME280;21561;55.654;37.592;2023-04-06T11:34:13;98890.63;;;26.47;28.60
35443;BME280;21561;55.654;37.592;2023-04-06T11:36:42;98883.84;;;26.76;28.10
35443;BME280;21561;55.654;37.592;2023-04-06T11:39:09;98825.63;;;26.92;26.88
35443;BME280;21561;55.654;37.592;2023-04-06T11:41:36;98841.47;;;27.03;26.52
35443;BME280;21561;55.654;37.592;2023-04-06T11:44:03;98705.00;;;27.11;20.84
35443;BME280;21561;55.654;37.592;2023-04-06T11:46:31;98812.00;;;27.46;27.41
35443;BME280;21561;55.654;37.592;2023-04-06T11:48:59;98770.81;;;27.69;25.80
35443;BME280;21561;55.654;37.592;2023-04-06T11:51:27;98745.50;;;27.83;25.43
35443;BME280;21561;55.654;37.592;2023-04-06T11:53:54;98796.06;;;27.94;24.77
35443;BME280;21561;55.654;37.592;2023-04-06T11:56:25;98547.19;;;27.76;19.52
35443;BME280;21561;55.654;37.592;2023-04-06T11:58:52;98730.28;;;27.36;24.58
35443;BME280;21561;55.654;37.592;2023-04-06T12:01:19;98717.91;;;27.16;24.37
35443;BME280;21561;55.654;37.592;2023-04-06T12:03:45;98714.41;;;27.15;23.52
35443;BME280;21561;55.654;37.592;2023-04-06T12:06:13;98712.19;;;27.30;23.36
35443;BME280;21561;55.654;37.592;2023-04-06T12:08:40;98685.53;;;27.40;23.08
35443;BME280;21561;55.654;37.592;2023-04-06T12:11:07;98688.06;;;27.51;23.61
35443;BME280;21561;55.654;37.592;2023-04-06T12:13:33;98701.22;;;27.53;23.96
35443;BME280;21561;55.654;37.592;2023-04-06T12:16:00;98723.09;;;27.56;23.95
35443;BME280;21561;55.654;37.592;2023-04-06T12:18:27;98660.25;;;27.64;23.13
35443;BME280;21561;55.654;37.592;2023-04-06T12:20:54;98707.22;;;27.74;23.74
35443;BME280;21561;55.654;37.592;2023-04-06T12:23:20;98678.63;;;27.76;22.84
35443;BME280;21561;55.654;37.592;2023-04-06T12:25:47;98675.22;;;27.84;23.64
35443;BME280;21561;55.654;37.592;2023-04-06T12:28:14;98583.13;;;27.72;22.09
35443;BME280;21561;55.654;37.592;2023-04-06T12:30:40;98707.41;;;27.14;24.08
35443;BME280;21561;55.654;37.592;2023-04-06T12:33:07;98692.81;;;27.18;23.39
35443;BME280;21561;55.654;37.592;2023-04-06T12:35:34;98666.47;;;27.35;23.07
35443;BME280;21561;55.654;37.592;2023-04-06T12:38:01;98664.25;;;27.40;23.17
35443;BME280;21561;55.654;37.592;2023-04-06T12:40:28;98665.09;;;27.40;23.14
35443;BME280;21561;55.654;37.592;2023-04-06T12:42:55;98650.06;;;27.49;22.73
35443;BME280;21561;55.654;37.592;2023-04-06T12:45:22;98647.41;;;27.49;22.70
35443;BME280;21561;55.654;37.592;2023-04-06T12:47:48;98655.25;;;27.60;21.89
35443;BME280;21561;55.654;37.592;2023-04-06T12:50:15;98628.28;;;27.64;22.10
35443;BME280;21561;55.654;37.592;2023-04-06T12:52:42;98603.88;;;27.68;21.74
35443;BME280;21561;55.654;37.592;2023-04-06T12:55:08;98597.13;;;27.74;21.77
35443;BME280;21561;55.654;37.592;2023-04-06T12:57:35;98578.81;;;27.89;21.40
35443;BME280;21561;55.654;37.592;2023-04-06T13:00:03;98537.94;;;27.80;21.31
35443;BME280;21561;55.654;37.592;2023-04-06T13:02:34;98553.94;;;27.33;21.57
35443;BME280;21561;55.654;37.592;2023-04-06T13:05:01;98596.41;;;27.24;21.79